createdAt,value
2023-11-13T00:00:00.024Z,65.09
2023-11-13T00:01:05.177Z,65.10
2023-11-13T00:02:15.144Z,65.02
2023-11-13T00:03:21.762Z,65.01
2023-11-13T00:04:30.469Z,64.94
2023-11-13T00:05:35.164Z,65.03
2023-11-13T00:06:46.810Z,64.81
2023-11-13T00:07:51.234Z,64.85
2023-11-13T00:08:57.720Z,64.78
2023-11-13T00:10:02.019Z,64.85
2023-11-13T00:11:11.637Z,64.78
2023-11-13T00:12:15.703Z,64.78
2023-11-13T00:13:24.441Z,64.74
2023-11-13T00:14:31.419Z,64.88
2023-11-13T00:15:37.941Z,64.88
2023-11-13T00:16:42.004Z,64.78
2023-11-13T00:17:48.888Z,64.72
2023-11-13T00:18:55.229Z,64.84
2023-11-13T00:20:01.874Z,64.80
2023-11-13T00:21:06.030Z,64.75
2023-11-13T00:22:13.649Z,64.83
2023-11-13T00:23:18.201Z,64.87
2023-11-13T00:24:27.726Z,64.70
2023-11-13T00:25:31.951Z,64.71
2023-11-13T00:26:38.654Z,64.66
2023-11-13T00:27:45.508Z,64.68
2023-11-13T00:28:54.561Z,64.42
2023-11-13T00:30:00.935Z,64.53
2023-11-13T00:31:09.920Z,64.61
2023-11-13T00:32:13.848Z,64.44
2023-11-13T00:33:20.448Z,64.51
2023-11-13T00:34:29.928Z,64.34
2023-11-13T00:35:44.943Z,64.28
2023-11-13T00:36:52.232Z,64.43
2023-11-13T00:38:01.435Z,64.33
2023-11-13T00:39:05.961Z,64.26
2023-11-13T00:40:14.849Z,64.26
2023-11-13T00:41:22.124Z,64.12
2023-11-13T00:42:27.267Z,64.17
2023-11-13T00:43:36.785Z,64.35
2023-11-13T00:44:42.990Z,64.34
2023-11-13T00:45:50.350Z,64.28
2023-11-13T00:46:54.572Z,64.25
2023-11-13T00:48:03.211Z,64.15
2023-11-13T00:49:11.169Z,64.21
2023-11-13T00:50:19.765Z,64.32
2023-11-13T00:51:25.929Z,63.92
2023-11-13T00:52:29.811Z,64.16
2023-11-13T00:53:40.439Z,64.30
2023-11-13T00:54:44.488Z,64.13
2023-11-13T00:55:53.055Z,64.15
2023-11-13T00:57:00.775Z,64.14
2023-11-13T00:58:07.730Z,64.36
2023-11-13T00:59:11.690Z,64.13
2023-11-13T01:00:19.938Z,64.25
2023-11-13T01:01:25.012Z,64.11
2023-11-13T01:02:33.730Z,64.23
2023-11-13T01:03:40.935Z,64.29
2023-11-13T01:04:49.887Z,64.25
2023-11-13T01:06:00.633Z,64.36
2023-11-13T01:07:08.092Z,64.21
2023-11-13T01:08:14.523Z,64.22
2023-11-13T01:09:21.075Z,64.17
2023-11-13T01:10:28.287Z,64.20
2023-11-13T01:11:37.257Z,64.18
2023-11-13T01:12:44.229Z,64.13
2023-11-13T01:13:53.895Z,64.02
2023-11-13T01:15:00.645Z,63.76
2023-11-13T01:16:06.197Z,63.82
2023-11-13T01:17:15.042Z,63.62
2023-11-13T01:18:24.744Z,63.48
2023-11-13T01:19:34.013Z,63.43
2023-11-13T01:20:37.945Z,63.69
2023-11-13T01:21:47.175Z,63.61
2023-11-13T01:22:53.389Z,63.33
2023-11-13T01:23:59.989Z,63.53
2023-11-13T01:25:07.533Z,63.45
2023-11-13T01:26:16.553Z,63.38
2023-11-13T01:27:20.554Z,63.54
2023-11-13T01:28:29.534Z,63.39
2023-11-13T01:29:34.074Z,63.49
2023-11-13T01:30:40.727Z,63.50
2023-11-13T01:31:46.125Z,63.37
2023-11-13T01:32:52.623Z,63.44
2023-11-13T01:33:56.735Z,63.34
2023-11-13T01:35:04.077Z,63.48
2023-11-13T01:36:08.981Z,63.49
2023-11-13T01:37:20.557Z,63.55
2023-11-13T01:38:24.457Z,63.47
2023-11-13T01:39:31.648Z,63.51
2023-11-13T01:40:37.915Z,63.06
2023-11-13T01:41:48.457Z,63.17
2023-11-13T01:42:54.679Z,63.22
2023-11-13T01:44:00.805Z,63.36
2023-11-13T01:45:06.356Z,63.15
2023-11-13T01:46:16.528Z,63.20
2023-11-13T01:47:20.564Z,63.27
2023-11-13T01:48:25.252Z,63.32
2023-11-13T01:49:31.639Z,63.29
2023-11-13T01:50:39.282Z,63.26
2023-11-13T01:51:48.351Z,63.34
2023-11-13T01:52:55.232Z,63.45
2023-11-13T01:54:08.509Z,63.37
2023-11-13T01:55:14.233Z,63.41
2023-11-13T01:56:26.395Z,63.12
2023-11-13T01:57:34.600Z,63.20
2023-11-13T01:58:41.502Z,63.19
2023-11-13T01:59:49.332Z,63.30
2023-11-13T02:00:59.809Z,63.31
2023-11-13T02:02:05.431Z,63.36
2023-11-13T02:03:16.913Z,63.28
2023-11-13T02:04:23.149Z,63.33
2023-11-13T02:05:33.011Z,63.30
2023-11-13T02:06:39.374Z,63.25
2023-11-13T02:07:47.121Z,63.25
2023-11-13T02:08:53.581Z,63.05
2023-11-13T02:10:00.175Z,63.08
2023-11-13T02:11:07.862Z,62.96
2023-11-13T02:12:15.050Z,63.12
2023-11-13T02:13:19.657Z,63.07
2023-11-13T02:14:30.085Z,63.20
2023-11-13T02:15:38.598Z,63.36
2023-11-13T02:16:45.655Z,63.28
2023-11-13T02:18:03.226Z,63.31
2023-11-13T02:19:10.600Z,63.30
2023-11-13T02:20:14.551Z,63.19
2023-11-13T02:21:21.071Z,63.18
2023-11-13T02:22:27.489Z,63.09
2023-11-13T02:23:36.692Z,63.10
2023-11-13T02:24:40.684Z,63.09
2023-11-13T02:25:56.740Z,62.96
2023-11-13T02:27:01.504Z,63.03
2023-11-13T02:28:11.026Z,62.95
2023-11-13T02:29:14.963Z,63.01
2023-11-13T02:30:24.756Z,63.14
2023-11-13T02:31:31.518Z,63.07
2023-11-13T02:32:38.012Z,63.06
2023-11-13T02:33:42.175Z,63.12
2023-11-13T02:34:50.887Z,63.06
2023-11-13T02:35:54.782Z,63.03
2023-11-13T02:37:04.585Z,63.07
2023-11-13T02:38:10.770Z,62.97
2023-11-13T02:39:20.970Z,62.94
2023-11-13T02:40:24.650Z,62.86
2023-11-13T02:41:33.591Z,62.89
2023-11-13T02:42:37.492Z,62.43
2023-11-13T02:43:44.051Z,62.36
2023-11-13T02:44:49.042Z,62.42
2023-11-13T02:45:58.024Z,62.24
2023-11-13T02:47:01.956Z,62.22
2023-11-13T02:48:09.387Z,62.44
2023-11-13T02:49:14.483Z,62.37
2023-11-13T02:50:22.267Z,62.39
2023-11-13T02:51:29.681Z,62.38
2023-11-13T02:52:35.940Z,62.45
2023-11-13T02:53:39.795Z,62.47
2023-11-13T02:54:53.369Z,62.66
2023-11-13T02:56:00.051Z,62.65
2023-11-13T02:57:06.590Z,62.78
2023-11-13T02:58:10.489Z,62.76
2023-11-13T02:59:17.011Z,62.66
2023-11-13T03:00:23.461Z,62.68
2023-11-13T03:01:33.245Z,62.68
2023-11-13T03:02:37.630Z,62.78
2023-11-13T03:03:46.139Z,62.75
2023-11-13T03:04:50.178Z,62.82
2023-11-13T03:05:56.737Z,62.66
2023-11-13T03:07:00.933Z,62.59
2023-11-13T03:08:07.929Z,62.56
2023-11-13T03:09:12.577Z,62.57
2023-11-13T03:10:21.602Z,62.52
2023-11-13T03:11:25.687Z,62.49
2023-11-13T03:12:34.543Z,62.49
2023-11-13T03:13:38.477Z,62.59
2023-11-13T03:14:45.023Z,62.49
2023-11-13T03:15:51.748Z,62.54
2023-11-13T03:16:59.453Z,62.64
2023-11-13T03:18:03.546Z,62.60
2023-11-13T03:19:13.061Z,62.55
2023-11-13T03:20:17.444Z,62.61
2023-11-13T03:21:21.303Z,62.51
2023-11-13T03:22:30.388Z,62.35
2023-11-13T03:23:37.663Z,62.57
2023-11-13T03:24:47.992Z,62.30
2023-11-13T03:26:00.764Z,62.62
2023-11-13T03:27:08.058Z,62.55
2023-11-13T03:28:12.054Z,62.48
2023-11-13T03:29:18.609Z,62.34
2023-11-13T03:30:24.953Z,62.10
2023-11-13T03:31:31.544Z,62.07
2023-11-13T03:32:35.514Z,62.10
2023-11-13T03:33:42.012Z,61.98
2023-11-13T03:34:46.007Z,61.80
2023-11-13T03:35:52.562Z,61.86
2023-11-13T03:36:58.976Z,61.78
2023-11-13T03:38:07.648Z,61.83
2023-11-13T03:39:15.080Z,61.75
2023-11-13T03:40:28.876Z,61.40
2023-11-13T03:41:36.496Z,61.35
2023-11-13T03:42:45.204Z,61.52
2023-11-13T03:43:49.091Z,61.64
2023-11-13T03:44:55.528Z,61.91
2023-11-13T03:45:59.421Z,61.90
2023-11-13T03:47:06.187Z,61.77
2023-11-13T03:48:10.404Z,61.92
2023-11-13T03:49:16.905Z,62.01
2023-11-13T03:50:23.147Z,61.95
2023-11-13T03:51:30.494Z,61.63
2023-11-13T03:52:34.466Z,61.65
2023-11-13T03:53:41.379Z,61.89
2023-11-13T03:54:48.290Z,61.85
2023-11-13T03:55:54.939Z,61.96
2023-11-13T03:57:01.399Z,61.97
2023-11-13T03:58:10.958Z,61.95
2023-11-13T03:59:17.437Z,61.43
2023-11-13T04:00:25.479Z,61.85
2023-11-13T04:01:29.428Z,61.84
2023-11-13T04:02:38.421Z,61.87
2023-11-13T04:03:43.220Z,61.81
2023-11-13T04:04:52.033Z,61.75
2023-11-13T04:05:56.236Z,61.68
2023-11-13T04:07:03.022Z,61.90
2023-11-13T04:08:09.256Z,61.47
2023-11-13T04:09:18.801Z,61.70
2023-11-13T04:10:24.355Z,61.79
2023-11-13T04:11:31.005Z,61.80
2023-11-13T04:12:37.541Z,61.79
2023-11-13T04:13:48.423Z,61.71
2023-11-13T04:14:53.195Z,61.73
2023-11-13T04:16:02.025Z,61.83
2023-11-13T04:17:06.415Z,61.66
2023-11-13T04:18:12.930Z,61.57
2023-11-13T04:19:21.799Z,61.32
2023-11-13T04:20:29.927Z,61.52
2023-11-13T04:21:33.809Z,61.47
2023-11-13T04:22:41.002Z,61.74
2023-11-13T04:23:45.790Z,61.66
2023-11-13T04:24:56.222Z,61.74
2023-11-13T04:26:02.394Z,61.66
2023-11-13T04:27:09.919Z,61.51
2023-11-13T04:28:16.685Z,61.57
2023-11-13T04:29:23.254Z,61.68
2023-11-13T04:30:26.510Z,61.51
2023-11-13T04:31:35.483Z,61.50
2023-11-13T04:32:39.528Z,61.49
2023-11-13T04:33:49.416Z,61.55
2023-11-13T04:34:55.601Z,61.43
2023-11-13T04:36:05.232Z,61.46
2023-11-13T04:37:14.219Z,61.58
2023-11-13T04:38:20.952Z,61.56
2023-11-13T04:39:27.279Z,61.57
2023-11-13T04:40:33.410Z,61.66
2023-11-13T04:41:41.894Z,61.66
2023-11-13T04:42:47.168Z,61.71
2023-11-13T04:43:56.242Z,61.83
2023-11-13T04:45:02.522Z,61.72
2023-11-13T04:46:09.238Z,61.73
2023-11-13T04:47:13.121Z,61.49
2023-11-13T04:48:19.498Z,61.61
2023-11-13T04:49:26.076Z,61.71
2023-11-13T04:50:30.018Z,61.68
2023-11-13T04:51:36.599Z,61.80
2023-11-13T04:52:40.456Z,61.80
2023-11-13T04:53:46.990Z,61.82
2023-11-13T04:54:53.822Z,61.85
2023-11-13T04:56:00.311Z,61.79
2023-11-13T04:57:07.154Z,61.82
2023-11-13T04:58:15.852Z,61.69
2023-11-13T04:59:22.980Z,61.61
2023-11-13T05:00:29.778Z,61.82
2023-11-13T05:01:38.236Z,61.77
2023-11-13T05:02:44.706Z,61.93
2023-11-13T05:03:54.308Z,62.01
2023-11-13T05:04:58.271Z,62.12
2023-11-13T05:06:08.504Z,62.15
2023-11-13T05:07:14.528Z,62.11
2023-11-13T05:08:21.154Z,62.01
2023-11-13T05:09:25.256Z,61.97
2023-11-13T05:10:34.105Z,62.08
2023-11-13T05:11:38.601Z,62.13
2023-11-13T05:12:45.073Z,62.20
2023-11-13T05:13:52.843Z,62.02
2023-11-13T05:15:01.943Z,62.02
2023-11-13T05:16:06.859Z,61.98
2023-11-13T05:17:13.522Z,62.18
2023-11-13T05:18:20.588Z,62.22
2023-11-13T05:19:27.490Z,62.11
2023-11-13T05:20:33.833Z,62.11
2023-11-13T05:21:40.341Z,62.02
2023-11-13T05:22:46.539Z,62.05
2023-11-13T05:23:53.318Z,62.03
2023-11-13T05:24:57.262Z,62.01
2023-11-13T05:26:03.049Z,62.10
2023-11-13T05:27:09.625Z,62.13
2023-11-13T05:28:13.277Z,62.16
2023-11-13T05:29:19.932Z,61.99
2023-11-13T05:30:25.882Z,62.15
2023-11-13T05:31:34.679Z,62.13
2023-11-13T05:32:38.628Z,62.23
2023-11-13T05:33:45.196Z,62.29
2023-11-13T05:34:50.464Z,62.17
2023-11-13T05:36:00.528Z,62.19
2023-11-13T05:37:06.889Z,62.24
2023-11-13T05:38:15.767Z,62.23
2023-11-13T05:39:23.121Z,62.34
2023-11-13T05:40:30.014Z,62.25
2023-11-13T05:41:38.566Z,62.15
2023-11-13T05:42:45.878Z,62.22
2023-11-13T05:43:50.445Z,62.12
2023-11-13T05:44:59.414Z,62.16
2023-11-13T05:46:09.087Z,62.19
2023-11-13T05:47:15.805Z,62.17
2023-11-13T05:48:20.421Z,62.12
2023-11-13T05:49:27.049Z,62.11
2023-11-13T05:50:33.237Z,62.24
2023-11-13T05:51:39.652Z,62.24
2023-11-13T05:52:48.618Z,62.27
2023-11-13T05:53:56.940Z,62.28
2023-11-13T05:55:02.128Z,62.28
2023-11-13T05:56:10.861Z,62.32
2023-11-13T05:57:14.763Z,62.37
2023-11-13T05:58:21.326Z,62.34
2023-11-13T05:59:25.254Z,62.32
2023-11-13T06:00:34.333Z,62.35
2023-11-13T06:01:43.650Z,62.35
2023-11-13T06:02:50.516Z,62.32
2023-11-13T06:03:56.673Z,62.38
2023-11-13T06:05:03.343Z,62.39
2023-11-13T06:06:16.721Z,62.25
2023-11-13T06:07:23.256Z,62.23
2023-11-13T06:08:29.632Z,62.19
2023-11-13T06:09:36.243Z,62.23
2023-11-13T06:10:42.394Z,62.41
2023-11-13T06:11:49.069Z,62.30
2023-11-13T06:12:56.067Z,62.23
2023-11-13T06:14:03.186Z,62.14
2023-11-13T06:15:11.781Z,62.22
2023-11-13T06:16:18.573Z,62.07
2023-11-13T06:17:26.741Z,62.12
2023-11-13T06:18:33.331Z,62.08
2023-11-13T06:19:37.220Z,61.90
2023-11-13T06:20:43.750Z,62.20
2023-11-13T06:21:47.743Z,62.10
2023-11-13T06:22:55.580Z,62.22
2023-11-13T06:23:59.562Z,62.17
2023-11-13T06:25:07.186Z,62.01
2023-11-13T06:26:13.915Z,62.12
2023-11-13T06:27:20.609Z,62.08
2023-11-13T06:28:24.601Z,61.95
2023-11-13T06:29:33.798Z,61.99
2023-11-13T06:30:37.655Z,62.03
2023-11-13T06:31:48.162Z,61.93
2023-11-13T06:32:54.734Z,61.82
2023-11-13T06:34:04.232Z,61.78
2023-11-13T06:35:09.468Z,61.90
2023-11-13T06:36:16.465Z,61.99
2023-11-13T06:37:20.838Z,61.81
2023-11-13T06:38:27.310Z,61.86
2023-11-13T06:39:33.740Z,61.76
2023-11-13T06:40:39.908Z,62.00
2023-11-13T06:41:45.005Z,62.05
2023-11-13T06:42:54.153Z,61.94
2023-11-13T06:43:59.308Z,62.04
2023-11-13T06:45:05.027Z,61.87
2023-11-13T06:46:14.252Z,61.84
2023-11-13T06:47:22.081Z,61.67
2023-11-13T06:48:31.044Z,61.88
2023-11-13T06:49:41.045Z,61.82
2023-11-13T06:50:48.082Z,61.84
2023-11-13T06:51:54.711Z,61.66
2023-11-13T06:53:01.023Z,61.52
2023-11-13T06:54:10.144Z,61.62
2023-11-13T06:55:28.398Z,61.58
2023-11-13T06:56:36.065Z,61.63
2023-11-13T06:57:43.027Z,61.75
2023-11-13T06:58:52.671Z,61.53
2023-11-13T06:59:56.566Z,61.57
2023-11-13T07:01:05.710Z,61.75
2023-11-13T07:02:09.713Z,61.67
2023-11-13T07:03:16.314Z,61.36
2023-11-13T07:04:25.780Z,61.65
2023-11-13T07:05:33.584Z,61.69
2023-11-13T07:06:40.397Z,61.70
2023-11-13T07:07:46.893Z,61.66
2023-11-13T07:08:55.636Z,61.59
2023-11-13T07:10:02.573Z,61.66
2023-11-13T07:11:10.318Z,61.59
2023-11-13T07:12:18.062Z,61.51
2023-11-13T07:13:26.768Z,61.33
2023-11-13T07:14:30.693Z,61.43
2023-11-13T07:15:37.250Z,61.20
2023-11-13T07:16:42.256Z,61.43
2023-11-13T07:17:49.046Z,61.46
2023-11-13T07:18:52.971Z,61.44
2023-11-13T07:19:59.540Z,61.50
2023-11-13T07:21:06.422Z,61.57
2023-11-13T07:22:12.159Z,61.73
2023-11-13T07:23:21.075Z,61.85
2023-11-13T07:24:27.394Z,61.88
2023-11-13T07:25:41.983Z,61.92
2023-11-13T07:26:48.978Z,61.80
2023-11-13T07:27:54.636Z,61.87
2023-11-13T07:28:59.515Z,61.90
2023-11-13T07:30:08.900Z,61.91
2023-11-13T07:31:12.817Z,61.95
2023-11-13T07:32:22.080Z,62.02
2023-11-13T07:33:26.097Z,61.97
2023-11-13T07:34:35.949Z,61.89
2023-11-13T07:35:42.548Z,62.17
2023-11-13T07:36:53.566Z,62.16
2023-11-13T07:38:00.127Z,62.11
2023-11-13T07:39:07.655Z,62.07
2023-11-13T07:40:14.909Z,62.14
2023-11-13T07:41:21.622Z,62.10
2023-11-13T07:42:33.747Z,62.20
2023-11-13T07:43:43.329Z,62.09
2023-11-13T07:44:50.716Z,62.11
2023-11-13T07:45:57.358Z,62.13
2023-11-13T07:47:08.895Z,62.27
2023-11-13T07:48:18.202Z,62.16
2023-11-13T07:49:22.422Z,62.25
2023-11-13T07:50:29.090Z,62.10
2023-11-13T07:51:35.713Z,62.02
2023-11-13T07:52:48.267Z,62.06
2023-11-13T07:53:52.157Z,62.21
2023-11-13T07:55:03.250Z,62.20
2023-11-13T07:56:10.931Z,62.31
2023-11-13T07:57:17.021Z,62.29
2023-11-13T07:58:24.211Z,62.31
2023-11-13T07:59:33.163Z,62.23
2023-11-13T08:00:40.052Z,62.22
2023-11-13T08:01:48.892Z,62.19
2023-11-13T08:02:53.525Z,62.23
2023-11-13T08:04:02.356Z,62.16
2023-11-13T08:05:12.219Z,62.17
2023-11-13T08:06:19.415Z,62.14
2023-11-13T08:07:33.292Z,62.26
2023-11-13T08:08:39.759Z,62.11
2023-11-13T08:09:45.971Z,62.19
2023-11-13T08:10:53.258Z,62.23
2023-11-13T08:11:59.423Z,62.20
2023-11-13T08:13:10.557Z,61.90
2023-11-13T08:14:15.552Z,61.92
2023-11-13T08:15:23.292Z,62.00
2023-11-13T08:16:28.533Z,61.90
2023-11-13T08:17:38.407Z,61.89
2023-11-13T08:18:43.346Z,61.83
2023-11-13T08:19:50.028Z,61.92
2023-11-13T08:20:54.766Z,62.04
2023-11-13T08:22:02.358Z,62.15
2023-11-13T08:23:11.376Z,62.25
2023-11-13T08:24:21.044Z,62.21
2023-11-13T08:25:25.858Z,62.37
2023-11-13T08:26:34.129Z,62.19
2023-11-13T08:27:41.422Z,62.30
2023-11-13T08:28:50.550Z,62.42
2023-11-13T08:29:54.947Z,62.63
2023-11-13T08:31:05.812Z,62.52
2023-11-13T08:32:11.717Z,62.42
2023-11-13T08:33:20.476Z,62.38
2023-11-13T08:34:24.498Z,62.50
2023-11-13T08:35:33.945Z,62.42
2023-11-13T08:36:40.587Z,62.52
2023-11-13T08:37:49.016Z,62.31
2023-11-13T08:39:01.476Z,62.21
2023-11-13T08:40:12.311Z,62.17
2023-11-13T08:41:19.764Z,62.32
2023-11-13T08:42:23.772Z,62.31
2023-11-13T08:43:30.959Z,62.29
2023-11-13T08:44:36.275Z,62.19
2023-11-13T08:45:53.909Z,62.13
2023-11-13T08:47:11.782Z,62.32
2023-11-13T08:48:15.904Z,62.24
2023-11-13T08:49:24.425Z,61.99
2023-11-13T08:50:28.974Z,62.08
2023-11-13T08:51:35.471Z,62.07
2023-11-13T08:52:42.208Z,61.99
2023-11-13T08:53:49.620Z,62.07
2023-11-13T08:54:58.350Z,62.12
2023-11-13T08:56:16.473Z,61.98
2023-11-13T08:57:20.968Z,61.54
2023-11-13T08:58:27.708Z,61.72
2023-11-13T08:59:31.775Z,61.74
2023-11-13T09:00:45.599Z,61.80
2023-11-13T09:01:49.925Z,61.76
2023-11-13T09:03:00.923Z,61.75
2023-11-13T09:04:08.222Z,61.43
2023-11-13T09:05:14.876Z,61.31
2023-11-13T09:06:20.973Z,61.13
2023-11-13T09:07:30.159Z,61.33
2023-11-13T09:08:37.151Z,61.21
2023-11-13T09:09:43.855Z,61.29
2023-11-13T09:10:50.405Z,61.22
2023-11-13T09:11:56.911Z,61.33
2023-11-13T09:13:03.873Z,61.23
2023-11-13T09:14:11.139Z,60.95
2023-11-13T09:15:16.327Z,60.88
2023-11-13T09:16:22.884Z,60.72
2023-11-13T09:17:27.277Z,60.24
2023-11-13T09:18:33.967Z,60.29
2023-11-13T09:19:42.448Z,60.29
2023-11-13T09:20:49.688Z,60.72
2023-11-13T09:22:01.155Z,60.67
2023-11-13T09:23:10.478Z,59.38
2023-11-13T09:24:15.165Z,60.24
2023-11-13T09:25:24.911Z,59.85
2023-11-13T09:26:33.944Z,59.48
2023-11-13T09:27:40.544Z,59.94
2023-11-13T09:28:44.555Z,59.85
2023-11-13T09:29:51.045Z,59.62
2023-11-13T09:30:57.288Z,59.69
2023-11-13T09:32:08.796Z,59.25
2023-11-13T09:33:12.901Z,58.43
2023-11-13T09:34:20.276Z,58.39
2023-11-13T09:35:26.186Z,58.99
2023-11-13T09:36:36.057Z,58.96
2023-11-13T09:37:42.426Z,58.90
2023-11-13T09:38:55.166Z,59.05
2023-11-13T09:40:09.510Z,58.95
2023-11-13T09:41:26.895Z,58.37
2023-11-13T09:42:34.917Z,58.26
2023-11-13T09:43:42.165Z,58.17
2023-11-13T09:44:56.458Z,58.19
2023-11-13T09:46:08.446Z,57.89
2023-11-13T09:47:18.100Z,58.20
2023-11-13T09:48:30.545Z,58.35
2023-11-13T09:49:43.219Z,57.28
2023-11-13T09:50:50.726Z,56.51
2023-11-13T09:51:55.896Z,57.06
2023-11-13T09:53:07.958Z,56.65
2023-11-13T09:54:14.946Z,57.05
2023-11-13T09:55:25.412Z,56.98
2023-11-13T09:56:32.066Z,56.40
2023-11-13T09:57:46.288Z,56.66
2023-11-13T09:58:54.842Z,56.83
2023-11-13T10:00:03.770Z,56.75
2023-11-13T10:01:21.720Z,57.13
2023-11-13T10:02:31.025Z,57.80
2023-11-13T10:03:38.989Z,57.71
2023-11-13T10:04:45.579Z,56.75
2023-11-13T10:05:50.794Z,56.69
2023-11-13T10:07:01.286Z,56.57
2023-11-13T10:08:05.982Z,56.69
2023-11-13T10:09:15.562Z,56.92
2023-11-13T10:10:23.988Z,56.96
2023-11-13T10:11:31.008Z,56.65
2023-11-13T10:12:37.611Z,56.16
2023-11-13T10:13:49.317Z,56.75
2023-11-13T10:15:03.958Z,57.03
2023-11-13T10:16:24.183Z,57.29
2023-11-13T10:17:42.626Z,56.76
2023-11-13T10:18:49.125Z,56.05
2023-11-13T10:20:00.714Z,55.60
2023-11-13T10:21:09.441Z,55.93
2023-11-13T10:22:17.756Z,56.08
2023-11-13T10:23:37.711Z,56.91
2023-11-13T10:24:46.518Z,56.39
2023-11-13T10:25:57.905Z,56.32
2023-11-13T10:27:03.706Z,55.88
2023-11-13T10:28:09.936Z,55.59
2023-11-13T10:29:28.293Z,55.70
2023-11-13T10:30:36.874Z,55.00
2023-11-13T10:31:46.407Z,55.22
2023-11-13T10:32:53.144Z,55.30
2023-11-13T10:34:00.784Z,54.80
2023-11-13T10:35:10.857Z,54.24
2023-11-13T10:36:19.528Z,54.56
2023-11-13T10:37:28.838Z,54.14
2023-11-13T10:38:45.501Z,54.21
2023-11-13T10:39:53.098Z,53.76
2023-11-13T10:41:01.559Z,53.29
2023-11-13T10:42:25.721Z,54.52
2023-11-13T10:43:31.799Z,53.62
2023-11-13T10:44:44.319Z,53.16
2023-11-13T10:45:48.427Z,52.91
2023-11-13T10:46:58.002Z,52.83
2023-11-13T10:48:01.199Z,53.83
2023-11-13T10:49:13.498Z,54.48
2023-11-13T10:50:22.809Z,54.36
2023-11-13T10:51:29.618Z,54.38
2023-11-13T10:52:33.689Z,53.69
2023-11-13T10:53:44.546Z,53.86
2023-11-13T10:54:49.778Z,53.95
2023-11-13T10:56:01.322Z,53.64
2023-11-13T10:57:09.950Z,53.17
2023-11-13T10:58:16.641Z,53.03
2023-11-13T10:59:20.617Z,53.14
2023-11-13T11:00:32.768Z,53.06
2023-11-13T11:01:43.134Z,52.95
2023-11-13T11:02:50.428Z,52.87
2023-11-13T11:03:59.421Z,53.25
2023-11-13T11:05:11.220Z,53.56
2023-11-13T11:06:21.719Z,52.58
2023-11-13T11:07:31.307Z,52.41
2023-11-13T11:08:38.821Z,52.28
2023-11-13T11:09:48.747Z,52.23
2023-11-13T11:10:56.145Z,52.28
2023-11-13T11:12:04.785Z,52.24
2023-11-13T11:13:16.810Z,52.08
2023-11-13T11:14:45.479Z,53.54
2023-11-13T11:16:17.661Z,52.57
2023-11-13T11:17:39.285Z,53.46
2023-11-13T11:18:52.056Z,52.52
2023-11-13T11:20:07.202Z,52.25
2023-11-13T11:21:37.713Z,53.09
2023-11-13T11:22:59.225Z,52.19
2023-11-13T11:24:21.434Z,52.90
2023-11-13T11:25:46.183Z,53.09
2023-11-13T11:27:00.101Z,52.00
2023-11-13T11:28:07.409Z,51.79
2023-11-13T11:29:35.375Z,53.08
2023-11-13T11:30:43.003Z,51.73
2023-11-13T11:31:52.746Z,50.81
2023-11-13T11:32:59.524Z,50.65
2023-11-13T11:34:07.874Z,51.35
2023-11-13T11:35:21.051Z,51.19
2023-11-13T11:36:32.811Z,50.53
2023-11-13T11:37:36.904Z,49.82
2023-11-13T11:38:45.626Z,49.45
2023-11-13T11:39:54.574Z,49.84
2023-11-13T11:41:03.492Z,50.09
2023-11-13T11:42:18.325Z,50.27
2023-11-13T11:43:34.810Z,50.51
2023-11-13T11:44:47.792Z,51.01
2023-11-13T11:45:56.453Z,50.63
2023-11-13T11:47:08.769Z,50.10
2023-11-13T11:48:19.537Z,47.79
2023-11-13T11:49:29.780Z,48.28
2023-11-13T11:50:37.429Z,47.06
2023-11-13T11:51:42.036Z,47.27
2023-11-13T11:52:53.808Z,47.48
2023-11-13T11:53:57.111Z,47.75
2023-11-13T11:55:14.145Z,47.18
2023-11-13T11:56:17.397Z,47.09
2023-11-13T11:57:26.373Z,47.63
2023-11-13T11:58:33.620Z,47.18
2023-11-13T11:59:41.088Z,54.62
2023-11-13T12:00:46.626Z,51.83
2023-11-13T12:01:54.623Z,50.47
2023-11-13T12:03:05.217Z,49.74
2023-11-13T12:04:12.732Z,50.79
2023-11-13T12:05:20.654Z,51.38
2023-11-13T12:06:25.478Z,51.35
2023-11-13T12:07:35.740Z,49.32
2023-11-13T12:08:43.087Z,49.77
2023-11-13T12:09:49.573Z,48.84
2023-11-13T12:10:56.757Z,49.28
2023-11-13T12:12:05.873Z,48.10
2023-11-13T12:13:12.879Z,48.00
2023-11-13T12:14:19.571Z,48.54
2023-11-13T12:15:28.123Z,48.23
2023-11-13T12:16:37.742Z,48.15
2023-11-13T12:17:45.365Z,48.01
2023-11-13T12:18:54.227Z,48.02
2023-11-13T12:20:09.851Z,48.35
2023-11-13T12:21:24.696Z,48.43
2023-11-13T12:22:34.233Z,48.93
2023-11-13T12:23:40.861Z,48.80
2023-11-13T12:24:44.977Z,49.14
2023-11-13T12:25:51.618Z,49.31
2023-11-13T12:26:58.017Z,49.92
2023-11-13T12:28:04.786Z,49.57
2023-11-13T12:29:20.436Z,49.61
2023-11-13T12:30:28.876Z,49.72
2023-11-13T12:31:32.816Z,49.60
2023-11-13T12:32:42.182Z,49.89
2023-11-13T12:33:53.985Z,49.94
2023-11-13T12:35:01.895Z,49.86
2023-11-13T12:36:06.867Z,49.93
2023-11-13T12:37:13.597Z,50.14
2023-11-13T12:38:24.060Z,50.38
2023-11-13T12:39:31.635Z,50.58
2023-11-13T12:40:35.774Z,50.88
2023-11-13T12:41:39.730Z,51.17
2023-11-13T12:42:49.681Z,51.34
2023-11-13T12:43:55.040Z,51.39
2023-11-13T12:45:09.607Z,51.45
2023-11-13T12:46:24.041Z,51.63
2023-11-13T12:47:30.833Z,51.77
2023-11-13T12:48:36.703Z,51.75
2023-11-13T12:49:45.851Z,51.80
2023-11-13T12:50:50.220Z,51.88
2023-11-13T12:51:57.732Z,52.12
2023-11-13T12:53:01.617Z,52.28
2023-11-13T12:54:15.788Z,52.41
2023-11-13T12:55:21.262Z,52.52
2023-11-13T12:56:25.881Z,52.45
2023-11-13T12:57:38.683Z,52.73
2023-11-13T12:58:43.039Z,53.23
2023-11-13T12:59:54.152Z,53.22
2023-11-13T13:00:58.147Z,53.58
2023-11-13T13:02:05.954Z,53.79
2023-11-13T13:03:12.779Z,54.18
2023-11-13T13:04:21.906Z,54.41
2023-11-13T13:05:31.561Z,54.55
2023-11-13T13:06:40.820Z,54.51
2023-11-13T13:07:45.395Z,54.60
2023-11-13T13:08:58.396Z,54.85
2023-11-13T13:10:03.583Z,54.91
2023-11-13T13:11:10.265Z,55.17
2023-11-13T13:12:14.213Z,55.30
2023-11-13T13:13:20.735Z,55.13
2023-11-13T13:14:28.182Z,55.25
2023-11-13T13:15:34.530Z,55.40
2023-11-13T13:16:38.668Z,55.64
2023-11-13T13:17:51.075Z,55.42
2023-11-13T13:18:55.300Z,55.81
2023-11-13T13:20:03.482Z,55.38
2023-11-13T13:21:14.921Z,55.44
2023-11-13T13:22:21.540Z,55.59
2023-11-13T13:23:25.544Z,55.60
2023-11-13T13:24:31.859Z,55.87
2023-11-13T13:25:37.637Z,55.99
2023-11-13T13:26:46.523Z,55.94
2023-11-13T13:27:50.386Z,56.07
2023-11-13T13:28:58.299Z,56.06
2023-11-13T13:30:03.025Z,55.99
2023-11-13T13:31:12.392Z,56.07
2023-11-13T13:32:18.982Z,56.08
2023-11-13T13:33:28.561Z,56.18
2023-11-13T13:34:32.581Z,56.45
2023-11-13T13:35:40.327Z,56.60
2023-11-13T13:36:47.248Z,56.56
2023-11-13T13:37:54.000Z,56.65
2023-11-13T13:38:58.068Z,56.65
2023-11-13T13:40:11.409Z,56.58
2023-11-13T13:41:17.729Z,56.61
2023-11-13T13:42:26.493Z,56.83
2023-11-13T13:43:33.267Z,56.92
2023-11-13T13:44:39.886Z,57.21
2023-11-13T13:45:45.278Z,57.44
2023-11-13T13:46:55.355Z,57.30
2023-11-13T13:48:03.101Z,57.33
2023-11-13T13:49:07.437Z,57.28
2023-11-13T13:50:20.644Z,57.17
2023-11-13T13:51:26.524Z,57.26
2023-11-13T13:52:38.668Z,57.29
2023-11-13T13:53:46.207Z,57.27
2023-11-13T13:54:52.415Z,57.46
2023-11-13T13:56:00.213Z,57.57
2023-11-13T13:57:08.848Z,57.74
2023-11-13T13:58:13.803Z,57.76
2023-11-13T13:59:23.548Z,57.69
2023-11-13T14:00:35.808Z,57.68
2023-11-13T14:01:44.315Z,57.66
2023-11-13T14:02:48.469Z,57.58
2023-11-13T14:03:57.716Z,57.38
2023-11-13T14:05:05.946Z,57.30
2023-11-13T14:06:16.552Z,57.50
2023-11-13T14:07:20.505Z,57.50
2023-11-13T14:08:29.805Z,57.49
2023-11-13T14:09:36.175Z,57.50
2023-11-13T14:10:52.277Z,57.39
2023-11-13T14:12:03.476Z,57.43
2023-11-13T14:13:16.092Z,57.42
2023-11-13T14:14:20.614Z,57.41
2023-11-13T14:15:30.477Z,57.69
2023-11-13T14:16:37.668Z,57.73
2023-11-13T14:17:45.300Z,57.67
2023-11-13T14:18:52.435Z,57.57
2023-11-13T14:19:59.936Z,57.68
2023-11-13T14:21:04.765Z,57.59
2023-11-13T14:22:12.633Z,57.53
2023-11-13T14:23:18.924Z,57.57
2023-11-13T14:24:30.335Z,57.55
2023-11-13T14:25:34.447Z,57.53
2023-11-13T14:26:41.008Z,57.57
2023-11-13T14:27:46.384Z,57.71
2023-11-13T14:28:56.782Z,57.77
2023-11-13T14:30:02.529Z,57.71
2023-11-13T14:31:11.622Z,57.55
2023-11-13T14:32:16.252Z,57.54
2023-11-13T14:33:24.586Z,57.46